KERV/ERV METAR and TAF weather

Enter ICAO airport designator
Station Type Date Time Source
KERV METAR 2019/10/15 20:55 UTC NOAA

KERV 152055Z AUTO 00000KT 10SM BKN060 OVC090 31/20 A2990 RMK AO2 T03050196


Station Type Date Time Source
KERV Decoded METAR 2019/10/15 20:55 UTC NOAA

Kerrville, Kerrville Municipal Airport/Louis Schreiner Field, TX, United States (KERV) 29-58N 099-05W
Oct 15, 2019 - 04:55 PM EDT / 2019.10.15 2055 UTC
Wind: Calm:0
Visibility: 10 mile(s):0
Sky conditions: overcast
Temperature: 86.9 F (30.5 C)
Dew Point: 67.3 F (19.6 C)
Relative Humidity: 52%
Pressure (altimeter): 29.9 in. Hg (1012 hPa)
ob: KERV 152055Z AUTO 00000KT 10SM BKN060 OVC090 31/20 A2990 RMK AO2 T03050196
cycle: 21

Station Type Date Time Source
KERV TAF UTC NOAA

Error!

Example: see airport list